createdAt,value
2017-10-12T00:00:12.243Z,15.20
2017-10-12T00:02:39.846Z,15.10
2017-10-12T00:05:07.429Z,15.20
2017-10-12T00:07:35.798Z,15.10
2017-10-12T00:10:03.371Z,15.10
2017-10-12T00:12:31.732Z,15.10
2017-10-12T00:14:59.334Z,15.10
2017-10-12T00:17:26.918Z,15.20
2017-10-12T00:19:54.515Z,15.20
2017-10-12T00:22:22.094Z,15.20
2017-10-12T00:24:50.470Z,15.30
2017-10-12T00:27:18.843Z,15.30
2017-10-12T00:29:46.486Z,15.30
2017-10-12T00:32:14.057Z,15.30
2017-10-12T00:34:41.617Z,15.40
2017-10-12T00:37:09.214Z,15.40
2017-10-12T00:39:36.802Z,15.40
2017-10-12T00:42:04.402Z,15.50
2017-10-12T00:44:31.978Z,15.50
2017-10-12T00:47:00.343Z,15.50
2017-10-12T00:49:27.930Z,15.50
2017-10-12T00:51:56.267Z,15.50
2017-10-12T00:54:23.861Z,15.50
2017-10-12T00:56:52.491Z,15.30
2017-10-12T00:59:20.054Z,15.30
2017-10-12T01:01:47.711Z,15.00
2017-10-12T01:04:15.257Z,14.90
2017-10-12T01:06:42.859Z,14.70
2017-10-12T01:09:10.450Z,14.50
2017-10-12T01:11:38.788Z,14.20
2017-10-12T01:14:06.412Z,14.20
2017-10-12T01:16:34.776Z,14.00
2017-10-12T01:19:03.145Z,13.90
2017-10-12T01:21:32.356Z,13.90
2017-10-12T01:24:00.677Z,13.80
2017-10-12T01:26:28.222Z,13.80
2017-10-12T01:28:55.804Z,13.80
2017-10-12T01:31:23.369Z,13.80
2017-10-12T01:33:51.002Z,13.80
2017-10-12T01:36:18.543Z,13.80
2017-10-12T01:38:46.895Z,13.80
2017-10-12T01:41:14.447Z,13.80
2017-10-12T01:43:42.937Z,13.80
2017-10-12T01:46:10.494Z,13.80
2017-10-12T01:48:49.977Z,13.80
2017-10-12T01:51:17.578Z,13.80
2017-10-12T01:53:45.151Z,13.80
2017-10-12T01:56:12.721Z,13.70
2017-10-12T01:58:40.317Z,13.70
2017-10-12T02:01:07.902Z,13.70
2017-10-12T02:03:35.456Z,13.70
2017-10-12T02:06:03.058Z,13.70
2017-10-12T02:08:30.627Z,13.60
2017-10-12T02:10:58.291Z,13.60
2017-10-12T02:13:26.089Z,13.60
2017-10-12T02:15:54.551Z,13.60
2017-10-12T02:18:23.731Z,13.60
2017-10-12T02:20:51.567Z,13.50
2017-10-12T02:23:19.170Z,13.60
2017-10-12T02:25:46.778Z,13.60
2017-10-12T02:28:14.358Z,13.50
2017-10-12T02:30:41.945Z,13.60
2017-10-12T02:33:20.513Z,13.60
2017-10-12T02:35:57.214Z,13.60
2017-10-12T02:38:25.595Z,13.60
2017-10-12T02:40:53.182Z,13.60
2017-10-12T02:43:20.754Z,13.70
2017-10-12T02:45:48.371Z,13.70
2017-10-12T02:48:15.989Z,13.70
2017-10-12T02:50:44.346Z,13.70
2017-10-12T02:53:12.054Z,13.70
2017-10-12T02:55:39.625Z,13.80
2017-10-12T02:58:07.226Z,13.70
2017-10-12T03:00:34.882Z,13.80
2017-10-12T03:03:02.524Z,13.80
2017-10-12T03:05:30.087Z,13.90
2017-10-12T03:07:58.441Z,13.90
2017-10-12T03:10:26.089Z,13.90
2017-10-12T03:12:53.691Z,13.90
2017-10-12T03:15:21.273Z,14.00
2017-10-12T03:17:49.227Z,14.00
2017-10-12T03:20:16.796Z,14.00
2017-10-12T03:22:44.891Z,14.00
2017-10-12T03:25:12.466Z,14.10
2017-10-12T03:27:41.493Z,14.20
2017-10-12T03:30:09.076Z,14.20
2017-10-12T03:32:36.663Z,14.20
2017-10-12T03:35:04.234Z,14.20
2017-10-12T03:37:32.562Z,14.30
2017-10-12T03:40:00.279Z,14.30
2017-10-12T03:42:28.621Z,14.40
2017-10-12T03:44:57.024Z,14.50
2017-10-12T03:47:24.598Z,14.50
2017-10-12T03:49:52.205Z,14.50
2017-10-12T03:52:19.813Z,14.50
2017-10-12T03:54:47.798Z,14.60
2017-10-12T03:57:16.126Z,14.60
2017-10-12T03:59:43.706Z,14.60
2017-10-12T04:02:12.222Z,14.60
2017-10-12T04:04:40.594Z,14.60
2017-10-12T04:07:08.200Z,14.60
2017-10-12T04:09:35.815Z,14.60
2017-10-12T04:12:03.521Z,14.50
2017-10-12T04:14:31.095Z,14.50
2017-10-12T04:16:58.736Z,14.50
2017-10-12T04:19:26.319Z,14.50
2017-10-12T04:21:53.936Z,14.50
2017-10-12T04:24:22.286Z,14.40
2017-10-12T04:26:49.894Z,14.40
2017-10-12T04:29:17.486Z,14.40
2017-10-12T04:31:45.112Z,14.40
2017-10-12T04:34:12.686Z,14.30
2017-10-12T04:36:40.327Z,14.30
2017-10-12T04:39:08.726Z,14.40
2017-10-12T04:41:36.643Z,14.40
2017-10-12T04:44:04.231Z,14.50
2017-10-12T04:46:32.598Z,14.60
2017-10-12T04:49:00.170Z,14.50
2017-10-12T04:51:28.502Z,14.60
2017-10-12T04:53:56.781Z,14.60
2017-10-12T04:56:25.114Z,14.60
2017-10-12T04:58:53.513Z,14.60
2017-10-12T05:01:21.120Z,14.50
2017-10-12T05:03:48.686Z,14.50
2017-10-12T05:06:16.258Z,14.50
2017-10-12T05:08:43.821Z,14.40
2017-10-12T05:11:11.411Z,14.30
2017-10-12T05:13:39.009Z,14.20
2017-10-12T05:16:06.559Z,14.10
2017-10-12T05:18:34.212Z,14.00
2017-10-12T05:21:01.803Z,13.90
2017-10-12T05:23:29.390Z,13.80
2017-10-12T05:25:58.393Z,13.60
2017-10-12T05:28:26.725Z,13.60
2017-10-12T05:30:54.331Z,13.50
2017-10-12T05:33:22.908Z,13.40
2017-10-12T05:35:50.499Z,13.40
2017-10-12T05:38:18.075Z,13.30
2017-10-12T05:40:45.710Z,13.30
2017-10-12T05:43:14.063Z,13.20
2017-10-12T05:45:42.494Z,13.20
2017-10-12T05:48:10.106Z,13.20
2017-10-12T05:50:37.719Z,13.10
2017-10-12T05:53:05.338Z,13.10
2017-10-12T05:55:32.913Z,13.10
2017-10-12T05:58:01.289Z,12.90
2017-10-12T06:00:29.654Z,12.90
2017-10-12T06:02:58.053Z,12.90
2017-10-12T06:05:26.407Z,12.90
2017-10-12T06:07:54.455Z,12.90
2017-10-12T06:10:22.054Z,12.80
2017-10-12T06:12:50.415Z,13.00
2017-10-12T06:15:17.994Z,13.00
2017-10-12T06:17:46.423Z,13.10
2017-10-12T06:20:14.015Z,13.10
2017-10-12T06:22:41.621Z,13.10
2017-10-12T06:25:09.232Z,13.10
2017-10-12T06:27:36.819Z,13.10
2017-10-12T06:30:04.426Z,13.10
2017-10-12T06:32:32.064Z,13.10
2017-10-12T06:34:59.689Z,13.20
2017-10-12T06:37:27.308Z,13.20
2017-10-12T06:39:54.880Z,13.20
2017-10-12T06:42:22.478Z,13.30
2017-10-12T06:44:50.070Z,13.30
2017-10-12T06:47:17.687Z,13.40
2017-10-12T06:49:45.246Z,13.50
2017-10-12T06:52:12.876Z,13.50
2017-10-12T06:54:40.457Z,13.60
2017-10-12T06:57:08.048Z,13.60
2017-10-12T06:59:35.626Z,13.70
2017-10-12T07:02:03.986Z,13.80
2017-10-12T07:04:31.915Z,13.80
2017-10-12T07:06:59.594Z,13.80
2017-10-12T07:09:27.177Z,13.90
2017-10-12T07:11:54.752Z,13.90
2017-10-12T07:14:23.444Z,13.90
2017-10-12T07:16:51.785Z,13.90
2017-10-12T07:19:19.416Z,13.90
2017-10-12T07:21:46.982Z,13.90
2017-10-12T07:24:14.599Z,14.00
2017-10-12T07:26:42.211Z,14.10
2017-10-12T07:29:09.868Z,14.20
2017-10-12T07:31:37.463Z,14.30
2017-10-12T07:34:05.039Z,14.30
2017-10-12T07:36:32.630Z,14.40
2017-10-12T07:39:00.189Z,14.60
2017-10-12T07:41:27.786Z,14.60
2017-10-12T07:43:55.387Z,14.80
2017-10-12T07:46:22.981Z,14.90
2017-10-12T07:48:50.548Z,14.90
2017-10-12T07:51:18.185Z,14.80
2017-10-12T07:53:46.512Z,15.10
2017-10-12T07:56:14.123Z,15.10
2017-10-12T07:58:42.487Z,15.60
2017-10-12T08:01:10.076Z,15.50
2017-10-12T08:03:37.679Z,15.50
2017-10-12T08:06:05.242Z,15.60
2017-10-12T08:08:32.836Z,15.90
2017-10-12T08:11:00.431Z,16.50
2017-10-12T08:13:28.022Z,16.30
2017-10-12T08:15:55.586Z,16.20
2017-10-12T08:18:23.280Z,16.00
2017-10-12T08:20:50.902Z,15.70
2017-10-12T08:23:18.494Z,15.50
2017-10-12T08:25:46.903Z,15.70
2017-10-12T08:28:15.274Z,16.30
2017-10-12T08:30:43.627Z,16.20
2017-10-12T08:33:11.200Z,16.20
2017-10-12T08:35:38.788Z,16.00
2017-10-12T08:38:07.501Z,15.70
2017-10-12T08:40:35.086Z,15.70
2017-10-12T08:43:02.674Z,15.50
2017-10-12T08:45:30.270Z,15.50
2017-10-12T08:47:57.854Z,15.30
2017-10-12T08:50:25.481Z,15.20
2017-10-12T08:52:54.098Z,15.30
2017-10-12T08:55:21.679Z,15.30
2017-10-12T08:57:49.265Z,15.40
2017-10-12T09:00:17.005Z,15.60
2017-10-12T09:02:44.608Z,15.70
2017-10-12T09:05:13.014Z,15.60
2017-10-12T09:07:40.604Z,15.60
2017-10-12T09:10:08.171Z,15.50
2017-10-12T09:12:35.779Z,15.40
2017-10-12T09:15:04.114Z,15.40
2017-10-12T09:17:31.708Z,15.40
2017-10-12T09:20:00.062Z,15.90
2017-10-12T09:22:27.789Z,15.90
2017-10-12T09:24:55.405Z,15.70
2017-10-12T09:27:22.990Z,15.50
2017-10-12T09:29:51.749Z,16.20
2017-10-12T09:32:19.587Z,16.20
2017-10-12T09:34:47.176Z,16.50
2017-10-12T09:37:14.726Z,16.40
2017-10-12T09:39:42.630Z,16.70
2017-10-12T09:42:10.987Z,16.70
2017-10-12T09:44:38.590Z,16.70
2017-10-12T09:47:06.169Z,16.50
2017-10-12T09:49:33.763Z,16.80
2017-10-12T09:52:02.085Z,17.40
2017-10-12T09:54:29.677Z,17.90
2017-10-12T09:56:57.252Z,17.90
2017-10-12T09:59:24.818Z,17.50
2017-10-12T10:01:52.417Z,17.00
2017-10-12T10:04:20.811Z,16.30
2017-10-12T10:06:48.393Z,16.30
2017-10-12T10:09:15.954Z,16.20
2017-10-12T10:11:43.543Z,16.20
2017-10-12T10:14:11.107Z,16.30
2017-10-12T10:16:38.715Z,16.20
2017-10-12T10:19:06.274Z,15.40
2017-10-12T10:21:33.958Z,16.20
2017-10-12T10:24:01.579Z,15.90
2017-10-12T10:26:29.927Z,16.70
2017-10-12T10:28:57.564Z,16.70
2017-10-12T10:31:25.175Z,16.80
2017-10-12T10:33:53.562Z,17.00
2017-10-12T10:36:21.132Z,17.00
2017-10-12T10:38:49.491Z,17.00
2017-10-12T10:41:17.065Z,17.00
2017-10-12T10:43:45.433Z,17.00
2017-10-12T10:46:12.993Z,17.00
2017-10-12T10:48:41.564Z,16.80
2017-10-12T10:51:09.154Z,16.80
2017-10-12T10:53:37.491Z,16.80
2017-10-12T10:56:05.103Z,16.80
2017-10-12T10:58:32.709Z,16.90
2017-10-12T11:01:00.323Z,17.30
2017-10-12T11:03:28.686Z,18.20
2017-10-12T11:05:57.098Z,18.40
2017-10-12T11:08:24.679Z,18.40
2017-10-12T11:10:52.262Z,18.80
2017-10-12T11:13:19.854Z,18.60
2017-10-12T11:15:48.205Z,18.90
2017-10-12T11:18:15.912Z,18.80
2017-10-12T11:20:43.486Z,18.30
2017-10-12T11:23:11.101Z,18.30
2017-10-12T11:25:38.706Z,18.40
2017-10-12T11:28:06.280Z,18.00
2017-10-12T11:30:34.614Z,17.40
2017-10-12T11:33:02.225Z,17.30
2017-10-12T11:35:30.637Z,17.30
2017-10-12T11:37:58.206Z,17.20
2017-10-12T11:40:25.830Z,17.30
2017-10-12T11:42:53.422Z,17.50
2017-10-12T11:45:21.030Z,17.50
2017-10-12T11:47:48.656Z,17.50
2017-10-12T11:50:16.326Z,17.60
2017-10-12T11:52:43.907Z,17.60
2017-10-12T11:55:11.509Z,17.40
2017-10-12T11:57:39.082Z,17.30
2017-10-12T12:00:06.637Z,17.30
2017-10-12T12:02:34.249Z,17.40
2017-10-12T12:05:02.577Z,17.10
2017-10-12T12:07:30.178Z,17.10
2017-10-12T12:09:58.599Z,17.00
2017-10-12T12:12:26.205Z,16.80
2017-10-12T12:14:53.748Z,16.70
2017-10-12T12:17:21.337Z,16.90
2017-10-12T12:19:49.714Z,17.00
2017-10-12T12:22:17.296Z,17.00
2017-10-12T12:24:45.686Z,16.60
2017-10-12T12:27:13.266Z,16.60
2017-10-12T12:29:40.851Z,16.60
2017-10-12T12:32:08.430Z,16.50
2017-10-12T12:34:36.039Z,16.60
2017-10-12T12:37:03.643Z,16.80
2017-10-12T12:39:31.239Z,16.90
2017-10-12T12:41:59.588Z,17.10
2017-10-12T12:44:27.182Z,17.10
2017-10-12T12:46:55.543Z,17.40
2017-10-12T12:49:23.167Z,17.30
2017-10-12T12:51:50.775Z,17.30
2017-10-12T12:54:18.388Z,17.20
2017-10-12T12:56:46.100Z,16.80
2017-10-12T12:59:13.691Z,16.80
2017-10-12T13:01:41.255Z,16.70
2017-10-12T13:04:08.817Z,16.50
2017-10-12T13:06:36.415Z,16.50
2017-10-12T13:09:04.000Z,16.50
2017-10-12T13:11:31.649Z,16.60
2017-10-12T13:13:59.236Z,16.70
2017-10-12T13:16:27.590Z,17.20
2017-10-12T13:18:56.083Z,17.20
2017-10-12T13:21:23.782Z,17.20
2017-10-12T13:23:51.350Z,17.00
2017-10-12T13:26:18.934Z,17.10
2017-10-12T13:28:46.560Z,17.30
2017-10-12T13:31:14.730Z,17.30
2017-10-12T13:33:42.334Z,17.00
2017-10-12T13:36:09.889Z,16.90
2017-10-12T13:38:37.482Z,16.70
2017-10-12T13:41:05.513Z,16.60
2017-10-12T13:43:33.099Z,16.50
2017-10-12T13:46:00.677Z,16.30
2017-10-12T13:48:28.276Z,16.30
2017-10-12T13:50:55.839Z,16.20
2017-10-12T13:53:23.425Z,16.30
2017-10-12T13:55:51.029Z,16.40
2017-10-12T13:58:18.631Z,16.40
2017-10-12T14:11:00.798Z,16.40
2017-10-12T14:13:28.387Z,16.40
2017-10-12T14:15:56.071Z,16.40
2017-10-12T14:18:23.663Z,16.40
2017-10-12T14:20:52.649Z,16.50
2017-10-12T14:23:21.044Z,16.50
2017-10-12T14:25:49.371Z,16.40
2017-10-12T14:28:16.963Z,16.40
2017-10-12T14:30:44.567Z,16.30
2017-10-12T14:33:12.234Z,16.20
2017-10-12T14:35:39.794Z,16.00
2017-10-12T14:38:07.405Z,15.90
2017-10-12T14:40:35.928Z,15.80
2017-10-12T14:43:03.589Z,15.70
2017-10-12T14:45:31.179Z,15.60
2017-10-12T14:47:58.754Z,15.60
2017-10-12T14:50:26.343Z,15.60
2017-10-12T14:52:54.687Z,15.50
2017-10-12T14:55:22.633Z,15.50
2017-10-12T14:57:50.207Z,15.40
2017-10-12T15:00:17.804Z,15.40
2017-10-12T15:02:45.398Z,15.30
2017-10-12T15:05:13.002Z,15.30
2017-10-12T15:07:40.595Z,15.30
2017-10-12T15:10:08.207Z,15.30
2017-10-12T15:12:36.058Z,15.40
2017-10-12T15:15:03.640Z,15.40
2017-10-12T15:17:31.250Z,15.40
2017-10-12T15:19:59.081Z,15.40
2017-10-12T15:22:26.703Z,15.30
2017-10-12T15:24:54.299Z,15.30
2017-10-12T15:27:21.894Z,15.20
2017-10-12T15:29:50.325Z,15.20
2017-10-12T15:32:18.275Z,15.20
2017-10-12T15:34:45.896Z,15.20
2017-10-12T15:37:13.748Z,15.20
2017-10-12T15:39:41.401Z,15.20
2017-10-12T15:42:08.991Z,15.20
2017-10-12T15:44:36.601Z,15.10
2017-10-12T15:47:04.206Z,15.10
2017-10-12T15:49:31.807Z,15.10
2017-10-12T15:52:00.159Z,15.00
2017-10-12T15:54:27.783Z,15.00
2017-10-12T15:56:55.366Z,14.90
2017-10-12T15:59:22.974Z,14.80
2017-10-12T16:01:50.627Z,14.80
2017-10-12T16:04:19.001Z,14.70
2017-10-12T16:06:47.430Z,14.60
2017-10-12T16:09:15.004Z,14.60
2017-10-12T16:11:42.611Z,14.60
2017-10-12T16:14:10.964Z,14.50
2017-10-12T16:16:38.585Z,14.50
2017-10-12T16:19:06.211Z,14.50
2017-10-12T16:21:34.567Z,14.30
2017-10-12T16:24:02.180Z,14.30
2017-10-12T16:26:29.779Z,14.30
2017-10-12T16:28:58.159Z,14.20
2017-10-12T16:31:25.897Z,14.20
2017-10-12T16:33:58.034Z,14.10
2017-10-12T16:36:25.728Z,14.00
2017-10-12T16:38:53.343Z,14.00
2017-10-12T16:41:21.789Z,13.90
2017-10-12T16:43:49.421Z,13.90
2017-10-12T16:46:17.023Z,13.90
2017-10-12T16:48:44.634Z,13.80
2017-10-12T16:51:12.251Z,13.80
2017-10-12T16:53:39.890Z,13.80
2017-10-12T16:56:08.243Z,13.60
2017-10-12T16:58:35.843Z,13.60
2017-10-12T17:01:03.463Z,13.60
2017-10-12T17:03:31.071Z,13.50
2017-10-12T17:05:58.678Z,13.40
2017-10-12T17:08:26.334Z,13.30
2017-10-12T17:10:54.671Z,13.10
2017-10-12T17:13:22.290Z,13.10
2017-10-12T17:15:49.924Z,13.00
2017-10-12T17:18:17.548Z,13.00
2017-10-12T17:23:12.846Z,12.80
2017-10-12T17:25:40.488Z,12.70
2017-10-12T17:28:08.879Z,12.60
2017-10-12T17:30:36.480Z,12.50
2017-10-12T17:33:04.207Z,12.50
2017-10-12T17:35:31.876Z,12.40
2017-10-12T17:37:59.532Z,12.30
2017-10-12T17:40:27.160Z,12.30
2017-10-12T17:42:54.798Z,12.30
2017-10-12T17:45:22.455Z,12.30
2017-10-12T17:47:50.066Z,12.30
2017-10-12T17:52:53.093Z,12.20
2017-10-12T17:55:20.741Z,12.20
2017-10-12T17:57:49.118Z,12.10
2017-10-12T18:00:17.514Z,12.20
2017-10-12T18:02:45.169Z,12.20
2017-10-12T18:05:12.780Z,12.20
2017-10-12T18:07:40.410Z,12.20
2017-10-12T18:10:08.033Z,12.20
2017-10-12T18:12:36.436Z,12.20
2017-10-12T18:15:04.081Z,12.20
2017-10-12T18:17:31.684Z,12.20
2017-10-12T18:19:59.292Z,12.20
2017-10-12T18:22:27.483Z,12.30
2017-10-12T18:24:55.883Z,12.30
2017-10-12T18:27:23.495Z,12.30
2017-10-12T18:29:51.165Z,12.30
2017-10-12T18:32:18.732Z,12.30
2017-10-12T18:34:46.384Z,12.30
2017-10-12T18:39:42.377Z,12.20
2017-10-12T18:42:10.074Z,12.20
2017-10-12T18:44:37.677Z,12.20
2017-10-12T18:47:06.101Z,12.20
2017-10-12T18:49:33.748Z,12.20
2017-10-12T18:52:01.398Z,12.20
2017-10-12T18:54:29.024Z,12.10
2017-10-12T18:56:56.736Z,12.10
2017-10-12T18:59:24.580Z,12.10
2017-10-12T19:01:53.003Z,12.10
2017-10-12T19:04:20.634Z,12.10
2017-10-12T19:06:51.285Z,12.00
2017-10-12T19:09:18.893Z,12.00
2017-10-12T19:11:46.527Z,12.00
2017-10-12T19:14:14.156Z,11.90
2017-10-12T19:16:41.760Z,11.90
2017-10-12T19:19:10.230Z,11.90
2017-10-12T19:21:37.844Z,11.90
2017-10-12T19:24:06.338Z,11.90
2017-10-12T19:26:33.963Z,11.90
2017-10-12T19:29:01.667Z,11.90
2017-10-12T19:31:30.031Z,11.90
2017-10-12T19:33:58.439Z,11.90
2017-10-12T19:36:26.962Z,11.90
2017-10-12T19:38:54.593Z,11.90
2017-10-12T19:41:22.239Z,11.90
2017-10-12T19:43:49.869Z,12.00
2017-10-12T19:46:18.239Z,12.00
2017-10-12T19:48:45.869Z,11.90
2017-10-12T19:51:28.457Z,11.90
2017-10-12T19:53:41.341Z,12.00
2017-10-12T19:56:10.018Z,12.00
2017-10-12T19:59:06.404Z,11.90
2017-10-12T20:01:05.354Z,12.00
2017-10-12T20:06:01.392Z,11.90
2017-10-12T20:08:29.041Z,11.90
2017-10-12T20:10:56.625Z,11.90
2017-10-12T20:13:25.013Z,11.90
2017-10-12T20:15:54.368Z,11.80
2017-10-12T20:18:22.418Z,11.80
2017-10-12T20:20:50.065Z,11.80
2017-10-12T20:23:17.660Z,11.80
2017-10-12T20:25:45.382Z,11.80
2017-10-12T20:28:13.735Z,11.80
2017-10-12T20:30:41.375Z,11.70
2017-10-12T20:33:08.965Z,11.70
2017-10-12T20:35:37.363Z,11.80
2017-10-12T20:38:04.970Z,11.80
2017-10-12T20:40:32.563Z,11.90
2017-10-12T20:43:00.146Z,11.90
2017-10-12T20:45:28.890Z,11.90
2017-10-12T20:47:56.563Z,11.90
2017-10-12T20:50:24.277Z,11.90
2017-10-12T20:52:51.854Z,11.80
2017-10-12T20:55:19.482Z,11.90
2017-10-12T20:57:48.062Z,11.80
2017-10-12T21:00:16.454Z,11.80
2017-10-12T21:05:12.480Z,11.70
2017-10-12T21:07:40.850Z,11.70
2017-10-12T21:10:08.495Z,11.70
2017-10-12T21:12:36.794Z,11.70
2017-10-12T21:15:04.368Z,11.70
2017-10-12T21:17:32.730Z,11.70
2017-10-12T21:20:01.142Z,11.70
2017-10-12T21:22:28.742Z,11.70
2017-10-12T21:24:56.367Z,11.80
2017-10-12T21:27:23.938Z,11.80
2017-10-12T21:29:51.556Z,11.80
2017-10-12T21:32:19.123Z,11.90
2017-10-12T21:34:46.737Z,11.80
2017-10-12T21:37:14.335Z,11.80
2017-10-12T21:39:41.973Z,11.80
2017-10-12T21:42:09.611Z,11.90
2017-10-12T21:44:37.248Z,11.90
2017-10-12T21:47:05.611Z,11.90
2017-10-12T21:49:33.187Z,11.90
2017-10-12T21:52:01.569Z,11.90
2017-10-12T21:54:29.931Z,11.90
2017-10-12T21:56:58.305Z,11.90
2017-10-12T21:59:25.899Z,11.90
2017-10-12T22:01:53.616Z,11.90
2017-10-12T22:04:21.225Z,11.90
2017-10-12T22:06:48.862Z,11.90
2017-10-12T22:09:17.262Z,11.80
2017-10-12T22:11:44.914Z,11.80
2017-10-12T22:14:13.287Z,11.70
2017-10-12T22:16:41.614Z,11.70
2017-10-12T22:19:09.325Z,11.70
2017-10-12T22:21:38.153Z,11.60
2017-10-12T22:24:05.787Z,11.60
2017-10-12T22:26:34.203Z,11.60
2017-10-12T22:29:01.791Z,11.60
2017-10-12T22:31:29.849Z,11.60
2017-10-12T22:33:57.450Z,11.60
2017-10-12T22:36:25.089Z,11.70
2017-10-12T22:38:52.699Z,11.70
2017-10-12T22:41:20.354Z,11.70
2017-10-12T22:43:48.698Z,11.80
2017-10-12T22:46:16.301Z,11.80
2017-10-12T22:48:43.867Z,11.80
2017-10-12T22:51:11.680Z,11.90
2017-10-12T22:53:39.618Z,11.80
2017-10-12T22:56:07.325Z,11.90
2017-10-12T22:58:34.923Z,11.80
2017-10-12T23:01:03.263Z,11.90
2017-10-12T23:03:30.869Z,11.90
2017-10-12T23:05:58.465Z,11.90
2017-10-12T23:08:27.703Z,11.90
2017-10-12T23:10:56.042Z,11.90
2017-10-12T23:13:23.648Z,11.80
2017-10-12T23:15:52.002Z,12.00
2017-10-12T23:18:19.612Z,12.00
2017-10-12T23:20:47.295Z,12.20
2017-10-12T23:23:14.897Z,12.20
2017-10-12T23:25:42.484Z,12.30
2017-10-12T23:28:10.816Z,12.40
2017-10-12T23:30:39.277Z,12.40
2017-10-12T23:33:06.858Z,12.50
2017-10-12T23:35:34.481Z,12.50
2017-10-12T23:38:02.042Z,12.50
2017-10-12T23:40:29.746Z,12.50
2017-10-12T23:42:58.221Z,12.50
2017-10-12T23:45:25.847Z,12.50
2017-10-12T23:47:53.416Z,12.50
2017-10-12T23:50:21.029Z,12.60
2017-10-12T23:52:48.666Z,12.60
2017-10-12T23:55:16.266Z,12.60
2017-10-12T23:57:43.883Z,12.60
